createdAt,value
2022-08-30T00:01:34.257Z,100.00
2022-08-30T00:04:03.565Z,100.00
2022-08-30T00:06:32.408Z,100.00
2022-08-30T00:09:02.639Z,100.00
2022-08-30T00:11:30.537Z,100.00
2022-08-30T00:13:59.950Z,100.00
2022-08-30T00:16:27.957Z,100.00
2022-08-30T00:18:56.368Z,100.00
2022-08-30T00:21:24.702Z,100.00
2022-08-30T00:23:52.705Z,100.00
2022-08-30T00:26:22.164Z,100.00
2022-08-30T00:28:50.129Z,100.00
2022-08-30T00:31:18.056Z,100.00
2022-08-30T00:33:45.965Z,100.00
2022-08-30T00:36:13.892Z,100.00
2022-08-30T00:38:41.765Z,100.00
2022-08-30T00:41:09.815Z,100.00
2022-08-30T00:43:39.164Z,100.00
2022-08-30T00:46:08.294Z,100.00
2022-08-30T00:48:40.869Z,100.00
2022-08-30T00:51:11.431Z,100.00
2022-08-30T00:53:43.695Z,100.00
2022-08-30T00:56:12.592Z,100.00
2022-08-30T00:58:46.335Z,100.00
2022-08-30T01:01:14.888Z,100.00
2022-08-30T01:03:43.922Z,100.00
2022-08-30T01:06:13.928Z,100.00
2022-08-30T01:08:41.817Z,100.00
2022-08-30T01:11:10.288Z,100.00
2022-08-30T01:13:38.201Z,100.00
2022-08-30T01:16:08.631Z,100.00
2022-08-30T01:18:39.629Z,100.00
2022-08-30T01:21:17.356Z,100.00
2022-08-30T01:23:50.280Z,100.00
2022-08-30T01:26:22.177Z,100.00
2022-08-30T01:28:56.243Z,100.00
2022-08-30T01:31:24.308Z,100.00
2022-08-30T01:33:52.379Z,100.00
2022-08-30T01:36:21.281Z,100.00
2022-08-30T01:38:53.004Z,100.00
2022-08-30T01:41:23.835Z,100.00
2022-08-30T01:43:54.040Z,100.00
2022-08-30T01:46:24.414Z,100.00
2022-08-30T01:48:54.513Z,100.00
2022-08-30T01:51:24.676Z,100.00
2022-08-30T01:53:54.929Z,100.00
2022-08-30T01:56:23.735Z,100.00
2022-08-30T01:58:52.956Z,100.00
2022-08-30T02:01:24.363Z,100.00
2022-08-30T02:03:52.549Z,100.00
2022-08-30T02:06:21.869Z,100.00
2022-08-30T02:08:50.834Z,100.00
2022-08-30T02:11:20.099Z,100.00
2022-08-30T02:13:48.443Z,100.00
2022-08-30T02:16:19.582Z,100.00
2022-08-30T02:18:47.716Z,100.00
2022-08-30T02:21:16.448Z,100.00
2022-08-30T02:23:45.028Z,100.00
2022-08-30T02:26:14.668Z,100.00
2022-08-30T02:28:50.105Z,100.00
2022-08-30T02:31:20.497Z,100.00
2022-08-30T02:33:50.339Z,100.00
2022-08-30T02:36:20.224Z,100.00
2022-08-30T02:38:48.460Z,100.00
2022-08-30T02:41:16.364Z,100.00
2022-08-30T02:43:45.655Z,100.00
2022-08-30T02:46:13.776Z,100.00
2022-08-30T02:48:41.792Z,100.00
2022-08-30T02:51:13.073Z,100.00
2022-08-30T02:53:41.971Z,100.00
2022-08-30T02:56:09.913Z,100.00
2022-08-30T02:58:38.259Z,100.00
2022-08-30T03:01:07.950Z,100.00
2022-08-30T03:03:36.294Z,100.00
2022-08-30T03:06:04.364Z,100.00
2022-08-30T03:08:32.547Z,100.00
2022-08-30T03:11:00.772Z,100.00
2022-08-30T03:13:28.650Z,100.00
2022-08-30T03:15:56.729Z,100.00
2022-08-30T03:18:26.725Z,100.00
2022-08-30T03:20:55.093Z,100.00
2022-08-30T03:23:24.276Z,100.00
2022-08-30T03:25:53.504Z,100.00
2022-08-30T03:28:21.524Z,100.00
2022-08-30T03:30:49.584Z,100.00
2022-08-30T03:33:17.937Z,100.00
2022-08-30T03:35:48.118Z,100.00
2022-08-30T03:38:16.089Z,100.00
2022-08-30T03:40:44.788Z,100.00
2022-08-30T03:43:12.888Z,100.00
2022-08-30T03:45:40.980Z,100.00
2022-08-30T03:48:08.991Z,100.00
2022-08-30T03:50:36.976Z,100.00
2022-08-30T03:53:06.278Z,100.00
2022-08-30T03:55:34.179Z,100.00
2022-08-30T03:58:02.141Z,100.00
2022-08-30T04:00:30.216Z,100.00
2022-08-30T04:02:58.140Z,100.00
2022-08-30T04:05:27.267Z,100.00
2022-08-30T04:07:55.311Z,100.00
2022-08-30T04:10:24.694Z,100.00
2022-08-30T04:12:52.780Z,100.00
2022-08-30T04:15:21.080Z,100.00
2022-08-30T04:17:50.264Z,100.00
2022-08-30T04:20:18.612Z,100.00
2022-08-30T04:22:46.594Z,100.00
2022-08-30T04:25:15.821Z,100.00
2022-08-30T04:27:46.489Z,100.00
2022-08-30T04:30:16.268Z,100.00
2022-08-30T04:32:45.129Z,100.00
2022-08-30T04:35:14.385Z,100.00
2022-08-30T04:37:42.584Z,100.00
2022-08-30T04:40:11.900Z,100.00
2022-08-30T04:42:39.844Z,100.00
2022-08-30T04:45:11.986Z,100.00
2022-08-30T04:47:40.285Z,100.00
2022-08-30T04:50:09.212Z,100.00
2022-08-30T04:52:37.447Z,100.00
2022-08-30T04:55:06.758Z,100.00
2022-08-30T04:57:34.750Z,100.00
2022-08-30T05:00:03.366Z,100.00
2022-08-30T05:02:32.786Z,100.00
2022-08-30T05:05:17.874Z,100.00
2022-08-30T05:07:45.772Z,100.00
2022-08-30T05:10:13.714Z,100.00
2022-08-30T05:12:43.241Z,100.00
2022-08-30T05:15:13.278Z,100.00
2022-08-30T05:17:43.324Z,100.00
2022-08-30T05:20:13.257Z,100.00
2022-08-30T05:22:50.014Z,100.00
2022-08-30T05:25:23.395Z,100.00
2022-08-30T05:27:53.435Z,100.00
2022-08-30T05:30:22.506Z,100.00
2022-08-30T05:32:52.249Z,100.00
2022-08-30T05:35:25.545Z,100.00
2022-08-30T05:37:54.511Z,100.00
2022-08-30T05:40:23.409Z,100.00
2022-08-30T05:42:51.579Z,100.00
2022-08-30T05:45:19.547Z,100.00
2022-08-30T05:47:47.870Z,100.00
2022-08-30T05:50:17.276Z,100.00
2022-08-30T05:52:45.808Z,100.00
2022-08-30T05:55:14.495Z,100.00
2022-08-30T05:57:42.898Z,100.00
2022-08-30T06:00:14.188Z,100.00
2022-08-30T06:02:43.114Z,100.00
2022-08-30T06:05:14.292Z,100.00
2022-08-30T06:07:44.507Z,100.00
2022-08-30T06:10:13.295Z,100.00
2022-08-30T06:12:43.132Z,100.00
2022-08-30T06:15:12.154Z,96.65
2022-08-30T06:17:40.324Z,94.39
2022-08-30T06:20:10.755Z,91.28
2022-08-30T06:22:39.319Z,88.69
2022-08-30T06:25:10.186Z,84.36
2022-08-30T06:27:38.190Z,84.49
2022-08-30T06:30:08.599Z,84.89
2022-08-30T06:32:36.549Z,85.59
2022-08-30T06:35:05.205Z,85.98
2022-08-30T06:37:33.867Z,88.03
2022-08-30T06:40:03.150Z,88.45
2022-08-30T06:42:34.721Z,89.78
2022-08-30T06:45:10.317Z,93.46
2022-08-30T06:47:38.884Z,95.31
2022-08-30T06:50:07.909Z,97.29
2022-08-30T06:52:40.423Z,99.39
2022-08-30T06:55:09.101Z,100.00
2022-08-30T06:57:38.383Z,100.00
2022-08-30T07:00:10.523Z,100.00
2022-08-30T07:02:39.574Z,99.04
2022-08-30T07:05:08.728Z,100.00
2022-08-30T07:07:36.799Z,100.00
2022-08-30T07:10:05.767Z,100.00
2022-08-30T07:12:33.687Z,100.00
2022-08-30T07:15:03.348Z,98.36
2022-08-30T07:17:48.749Z,97.56
2022-08-30T07:20:18.510Z,95.46
2022-08-30T07:22:46.461Z,93.41
2022-08-30T07:25:14.683Z,94.24
2022-08-30T07:27:42.714Z,94.54
2022-08-30T07:30:14.099Z,93.80
2022-08-30T07:32:42.224Z,91.36
2022-08-30T07:35:10.241Z,86.57
2022-08-30T07:37:49.765Z,83.14
2022-08-30T07:40:18.069Z,79.94
2022-08-30T07:42:47.013Z,80.80
2022-08-30T07:45:16.447Z,77.74
2022-08-30T07:47:44.404Z,75.66
2022-08-30T07:50:12.805Z,74.80
2022-08-30T07:52:40.885Z,76.54
2022-08-30T07:55:11.370Z,79.49
2022-08-30T07:57:41.936Z,82.41
2022-08-30T08:00:11.300Z,83.78
2022-08-30T08:02:41.890Z,83.79
2022-08-30T08:05:13.941Z,85.98
2022-08-30T08:07:44.968Z,86.43
2022-08-30T08:10:13.487Z,88.46
2022-08-30T08:12:41.590Z,88.52
2022-08-30T08:15:10.701Z,88.97
2022-08-30T08:17:39.976Z,89.30
2022-08-30T08:20:08.784Z,90.38
2022-08-30T08:22:39.943Z,90.97
2022-08-30T08:25:08.820Z,91.54
2022-08-30T08:27:36.782Z,90.96
2022-08-30T08:30:05.501Z,92.09
2022-08-30T08:32:33.445Z,93.69
2022-08-30T08:35:02.853Z,94.53
2022-08-30T08:37:30.817Z,94.27
2022-08-30T08:39:58.796Z,95.44
2022-08-30T08:42:34.617Z,96.05
2022-08-30T08:45:11.264Z,94.79
2022-08-30T08:47:42.413Z,93.23
2022-08-30T08:50:18.569Z,93.89
2022-08-30T08:53:13.335Z,94.60
2022-08-30T08:55:50.468Z,95.46
2022-08-30T08:58:24.549Z,95.64
2022-08-30T09:00:52.892Z,95.44
2022-08-30T09:03:23.277Z,95.23
2022-08-30T09:05:53.268Z,95.05
2022-08-30T09:08:23.477Z,95.28
2022-08-30T09:11:02.618Z,94.57
2022-08-30T09:13:30.665Z,94.03
2022-08-30T09:16:00.268Z,92.72
2022-08-30T09:18:45.623Z,93.86
2022-08-30T09:21:21.637Z,93.86
2022-08-30T09:23:52.041Z,92.80
2022-08-30T09:26:31.066Z,91.70
2022-08-30T09:29:00.099Z,89.56
2022-08-30T09:31:30.434Z,88.93
2022-08-30T09:34:03.424Z,88.16
2022-08-30T09:36:35.403Z,88.27
2022-08-30T09:39:05.626Z,87.50
2022-08-30T09:41:40.357Z,85.56
2022-08-30T09:44:11.777Z,82.10
2022-08-30T09:46:48.759Z,79.52
2022-08-30T09:49:30.095Z,80.50
2022-08-30T09:52:14.258Z,82.43
2022-08-30T09:54:52.880Z,83.17
2022-08-30T09:57:33.746Z,80.87
2022-08-30T10:00:06.945Z,80.79
2022-08-30T10:02:48.652Z,80.99
2022-08-30T10:05:23.929Z,81.44
2022-08-30T10:08:03.052Z,81.57
2022-08-30T10:10:40.886Z,80.91
2022-08-30T10:13:45.368Z,79.07
2022-08-30T10:16:27.672Z,77.07
2022-08-30T10:19:07.139Z,77.48
2022-08-30T10:21:41.876Z,77.06
2022-08-30T10:24:21.090Z,76.87
2022-08-30T10:26:53.844Z,77.19
2022-08-30T10:29:26.776Z,76.39
2022-08-30T10:31:57.793Z,74.34
2022-08-30T10:34:30.348Z,73.67
2022-08-30T10:37:04.170Z,73.08
2022-08-30T10:39:40.653Z,70.14
2022-08-30T10:42:13.969Z,65.96
2022-08-30T10:44:46.421Z,63.51
2022-08-30T10:47:25.251Z,62.70
2022-08-30T10:49:59.273Z,62.84
2022-08-30T10:52:32.365Z,62.73
2022-08-30T10:55:08.508Z,61.52
2022-08-30T10:57:38.600Z,59.35
2022-08-30T11:00:14.481Z,60.13
2022-08-30T11:03:13.899Z,61.73
2022-08-30T11:05:59.579Z,62.66
2022-08-30T11:08:42.824Z,65.18
2022-08-30T11:11:23.608Z,65.96
2022-08-30T11:13:56.895Z,64.57
2022-08-30T11:16:37.153Z,65.80
2022-08-30T11:19:14.668Z,66.12
2022-08-30T11:21:44.590Z,61.84
2022-08-30T11:24:14.449Z,60.63
2022-08-30T11:27:02.145Z,60.26
2022-08-30T11:29:37.527Z,60.96
2022-08-30T11:32:24.813Z,59.89
2022-08-30T11:34:58.801Z,60.69
2022-08-30T11:37:42.948Z,60.34
2022-08-30T11:40:45.925Z,61.93
2022-08-30T11:43:47.045Z,62.85
2022-08-30T11:46:20.258Z,62.74
2022-08-30T11:48:54.337Z,61.26
2022-08-30T11:52:26.491Z,61.13
2022-08-30T11:55:00.535Z,63.33
2022-08-30T11:57:36.544Z,63.85
2022-08-30T12:00:11.035Z,64.13
2022-08-30T12:02:51.093Z,63.35
2022-08-30T12:05:49.507Z,60.99
2022-08-30T12:08:44.895Z,57.43
2022-08-30T12:12:01.030Z,56.35
2022-08-30T12:14:44.616Z,56.34
2022-08-30T12:17:36.407Z,57.91
2022-08-30T12:20:12.566Z,55.92
2022-08-30T12:22:40.631Z,55.54
2022-08-30T12:25:21.370Z,56.08
2022-08-30T12:27:52.758Z,56.61
2022-08-30T12:30:28.523Z,58.99
2022-08-30T12:32:58.743Z,58.25
2022-08-30T12:35:29.688Z,58.00
2022-08-30T12:38:00.918Z,55.38
2022-08-30T12:40:31.336Z,56.10
2022-08-30T12:43:01.604Z,56.20
2022-08-30T12:45:33.836Z,55.12
2022-08-30T12:48:07.502Z,54.18
2022-08-30T12:50:39.169Z,52.77
2022-08-30T12:53:13.922Z,53.22
2022-08-30T12:55:54.573Z,52.32
2022-08-30T12:58:37.775Z,52.79
2022-08-30T13:01:19.388Z,54.04
2022-08-30T13:04:03.748Z,54.15
2022-08-30T13:06:43.859Z,53.21
2022-08-30T13:09:24.909Z,52.62
2022-08-30T13:11:53.091Z,54.72
2022-08-30T13:14:37.403Z,55.47
2022-08-30T13:17:12.571Z,56.68
2022-08-30T13:19:42.489Z,57.94
2022-08-30T13:22:29.049Z,58.57
2022-08-30T13:24:57.165Z,59.23
2022-08-30T13:27:26.720Z,59.82
2022-08-30T13:29:54.864Z,61.54
2022-08-30T13:32:23.341Z,60.95
2022-08-30T13:34:51.639Z,60.30
2022-08-30T13:40:17.482Z,61.67
2022-08-30T13:42:46.744Z,62.62
2022-08-30T13:48:04.522Z,62.30
2022-08-30T13:50:34.476Z,61.77
2022-08-30T13:53:02.532Z,60.92
2022-08-30T13:55:31.905Z,61.29
2022-08-30T13:57:59.786Z,62.22
2022-08-30T14:00:30.445Z,61.96
2022-08-30T14:03:00.441Z,62.64
2022-08-30T14:05:48.408Z,62.16
2022-08-30T14:11:11.363Z,61.71
2022-08-30T14:14:14.587Z,62.83
2022-08-30T14:16:28.333Z,62.57
2022-08-30T14:18:56.856Z,61.64
2022-08-30T14:21:25.187Z,61.47
2022-08-30T14:23:53.292Z,60.61
2022-08-30T14:26:24.399Z,59.45
2022-08-30T14:28:54.129Z,58.95
2022-08-30T14:31:22.247Z,58.96
2022-08-30T14:33:50.890Z,59.08
2022-08-30T14:36:19.051Z,58.78
2022-08-30T14:38:47.061Z,59.54
2022-08-30T14:41:16.665Z,59.35
2022-08-30T14:43:45.953Z,59.68
2022-08-30T14:46:15.401Z,59.61
2022-08-30T14:48:44.330Z,60.38
2022-08-30T14:51:15.305Z,59.50
2022-08-30T14:53:43.251Z,59.44
2022-08-30T14:56:12.563Z,59.84
2022-08-30T14:58:40.484Z,59.54
2022-08-30T15:01:12.532Z,59.76
2022-08-30T15:03:42.202Z,59.69
2022-08-30T15:06:10.414Z,59.33
2022-08-30T15:08:39.395Z,59.58
2022-08-30T15:11:10.212Z,59.75
2022-08-30T15:13:39.267Z,59.47
2022-08-30T15:16:15.920Z,59.79
2022-08-30T15:18:43.924Z,60.66
2022-08-30T15:21:12.307Z,60.54
2022-08-30T15:23:40.993Z,60.56
2022-08-30T15:26:10.012Z,59.63
2022-08-30T15:28:38.419Z,60.31
2022-08-30T15:31:09.103Z,60.98
2022-08-30T15:33:39.972Z,60.35
2022-08-30T15:36:12.879Z,60.69
2022-08-30T15:38:42.648Z,60.45
2022-08-30T15:41:13.067Z,60.12
2022-08-30T15:43:41.929Z,60.20
2022-08-30T15:46:22.734Z,60.50
2022-08-30T15:48:55.317Z,60.33
2022-08-30T15:51:24.076Z,60.70
2022-08-30T15:53:53.220Z,60.08
2022-08-30T15:56:21.648Z,60.65
2022-08-30T15:58:49.789Z,60.79
2022-08-30T16:01:30.143Z,60.16
2022-08-30T16:04:00.919Z,60.17
2022-08-30T16:06:32.996Z,60.49
2022-08-30T16:09:01.300Z,59.90
2022-08-30T16:11:29.419Z,59.44
2022-08-30T16:13:58.947Z,59.73
2022-08-30T16:16:27.032Z,59.96
2022-08-30T16:18:55.687Z,60.16
2022-08-30T16:21:26.603Z,60.30
2022-08-30T16:23:56.595Z,60.77
2022-08-30T16:26:25.740Z,60.88
2022-08-30T16:28:54.242Z,61.15
2022-08-30T16:31:23.205Z,61.86
2022-08-30T16:33:53.017Z,61.43
2022-08-30T16:36:21.592Z,61.92
2022-08-30T16:38:55.930Z,62.01
2022-08-30T16:41:26.080Z,62.94
2022-08-30T16:43:54.451Z,63.13
2022-08-30T16:46:27.794Z,63.25
2022-08-30T16:48:57.502Z,63.37
2022-08-30T16:51:28.314Z,63.29
2022-08-30T16:53:59.044Z,63.05
2022-08-30T16:56:29.714Z,63.50
2022-08-30T16:59:02.680Z,63.56
2022-08-30T17:01:31.910Z,64.04
2022-08-30T17:04:00.510Z,64.23
2022-08-30T17:06:28.515Z,65.56
2022-08-30T17:08:58.285Z,65.17
2022-08-30T17:11:26.767Z,65.72
2022-08-30T17:13:55.013Z,66.55
2022-08-30T17:16:27.422Z,67.67
2022-08-30T17:18:55.965Z,67.79
2022-08-30T17:21:27.927Z,68.00
2022-08-30T17:24:01.886Z,68.33
2022-08-30T17:26:32.418Z,68.78
2022-08-30T17:29:00.424Z,69.51
2022-08-30T17:31:30.871Z,69.36
2022-08-30T17:34:02.845Z,69.71
2022-08-30T17:36:32.311Z,69.78
2022-08-30T17:39:00.223Z,69.95
2022-08-30T17:41:28.728Z,70.44
2022-08-30T17:43:58.037Z,71.21
2022-08-30T17:46:26.189Z,71.56
2022-08-30T17:49:00.963Z,71.63
2022-08-30T17:51:31.034Z,71.89
2022-08-30T17:53:59.497Z,72.23
2022-08-30T17:59:18.437Z,72.85
2022-08-30T18:01:48.121Z,73.32
2022-08-30T18:04:19.789Z,73.84
2022-08-30T18:06:48.612Z,74.29
2022-08-30T18:09:17.644Z,74.79
2022-08-30T18:11:45.783Z,75.88
2022-08-30T18:14:18.533Z,76.81
2022-08-30T18:16:53.225Z,77.17
2022-08-30T18:19:22.111Z,78.25
2022-08-30T18:21:50.030Z,78.40
2022-08-30T18:24:18.503Z,79.69
2022-08-30T18:26:46.657Z,80.23
2022-08-30T18:29:14.893Z,80.26
2022-08-30T18:31:55.689Z,80.26
2022-08-30T18:34:24.320Z,81.84
2022-08-30T18:36:52.239Z,81.71
2022-08-30T18:39:21.945Z,81.63
2022-08-30T18:41:50.882Z,81.89
2022-08-30T18:44:29.665Z,82.09
2022-08-30T18:47:05.632Z,82.78
2022-08-30T18:49:35.113Z,83.00
2022-08-30T18:52:06.183Z,82.98
2022-08-30T18:54:38.128Z,83.53
2022-08-30T18:57:06.970Z,83.60
2022-08-30T18:59:38.002Z,83.60
2022-08-30T19:02:09.414Z,83.33
2022-08-30T19:04:37.647Z,83.92
2022-08-30T19:07:07.992Z,83.79
2022-08-30T19:09:37.161Z,84.81
2022-08-30T19:14:53.904Z,85.85
2022-08-30T19:17:23.205Z,85.71
2022-08-30T19:19:52.087Z,84.95
2022-08-30T19:22:21.411Z,85.69
2022-08-30T19:24:50.644Z,85.54
2022-08-30T19:27:21.377Z,86.12
2022-08-30T19:30:07.141Z,86.19
2022-08-30T19:32:36.667Z,86.39
2022-08-30T19:35:05.380Z,87.16
2022-08-30T19:37:34.410Z,87.74
2022-08-30T19:40:03.385Z,88.16
2022-08-30T19:42:31.427Z,88.53
2022-08-30T19:44:59.836Z,88.30
2022-08-30T19:47:27.789Z,88.61
2022-08-30T19:49:57.109Z,88.87
2022-08-30T19:52:30.361Z,88.45
2022-08-30T19:54:59.105Z,88.67
2022-08-30T19:57:27.107Z,89.45
2022-08-30T19:59:57.735Z,89.65
2022-08-30T20:02:26.974Z,90.55
2022-08-30T20:04:58.041Z,90.80
2022-08-30T20:07:27.377Z,90.60
2022-08-30T20:09:56.354Z,90.27
2022-08-30T20:12:24.846Z,89.56
2022-08-30T20:14:52.757Z,90.49
2022-08-30T20:17:22.436Z,91.46
2022-08-30T20:19:50.328Z,92.22
2022-08-30T20:22:19.693Z,94.30
2022-08-30T20:24:32.067Z,85.07
2022-08-30T20:24:47.676Z,95.44
2022-08-30T20:27:15.660Z,95.60
2022-08-30T20:29:43.557Z,95.13
2022-08-30T20:32:11.512Z,94.78
2022-08-30T20:34:39.664Z,94.88
2022-08-30T20:37:08.144Z,94.78
2022-08-30T20:39:37.904Z,95.18
2022-08-30T20:42:06.587Z,95.21
2022-08-30T20:44:34.645Z,95.60
2022-08-30T20:47:03.688Z,96.09
2022-08-30T20:49:31.663Z,96.45
2022-08-30T20:51:59.573Z,96.98
2022-08-30T20:54:28.004Z,97.02
2022-08-30T20:56:57.320Z,97.47
2022-08-30T20:59:25.243Z,98.10
2022-08-30T21:01:53.506Z,98.95
2022-08-30T21:04:22.947Z,99.37
2022-08-30T21:06:51.259Z,99.69
2022-08-30T21:09:19.409Z,100.00
2022-08-30T21:11:48.723Z,100.00
2022-08-30T21:14:18.476Z,99.58
2022-08-30T21:16:46.402Z,98.61
2022-08-30T21:19:14.616Z,98.39
2022-08-30T21:21:43.115Z,98.62
2022-08-30T21:24:11.067Z,98.20
2022-08-30T21:26:40.943Z,97.98
2022-08-30T21:29:09.342Z,98.48
2022-08-30T21:31:39.308Z,99.31
2022-08-30T21:34:08.143Z,99.41
2022-08-30T21:36:48.037Z,99.20
2022-08-30T21:39:19.199Z,100.00
2022-08-30T21:41:48.099Z,99.94
2022-08-30T21:44:18.591Z,98.56
2022-08-30T21:46:49.482Z,97.27
2022-08-30T21:49:20.370Z,98.00
2022-08-30T21:51:50.792Z,97.57
2022-08-30T21:54:19.563Z,97.15
2022-08-30T21:56:50.288Z,97.68
2022-08-30T21:59:19.375Z,98.61
2022-08-30T22:01:50.064Z,99.75
2022-08-30T22:04:20.919Z,100.00
2022-08-30T22:06:51.427Z,100.00
2022-08-30T22:09:22.340Z,100.00
2022-08-30T22:11:50.998Z,100.00
2022-08-30T22:14:20.843Z,100.00
2022-08-30T22:16:50.196Z,100.00
2022-08-30T22:19:22.918Z,100.00
2022-08-30T22:21:51.936Z,100.00
2022-08-30T22:24:21.760Z,100.00
2022-08-30T22:26:49.858Z,100.00
2022-08-30T22:29:18.826Z,100.00
2022-08-30T22:31:46.807Z,100.00
2022-08-30T22:34:16.529Z,100.00
2022-08-30T22:36:44.647Z,100.00
2022-08-30T22:39:13.355Z,100.00
2022-08-30T22:41:44.286Z,100.00
2022-08-30T22:44:12.919Z,100.00
2022-08-30T22:46:41.258Z,100.00
2022-08-30T22:49:10.566Z,100.00
2022-08-30T22:51:41.630Z,100.00
2022-08-30T22:54:10.695Z,100.00
2022-08-30T22:56:39.593Z,100.00
2022-08-30T22:59:08.808Z,100.00
2022-08-30T23:01:39.187Z,100.00
2022-08-30T23:04:08.950Z,100.00
2022-08-30T23:06:37.196Z,100.00
2022-08-30T23:09:07.328Z,100.00
2022-08-30T23:11:35.968Z,100.00
2022-08-30T23:14:04.506Z,100.00
2022-08-30T23:16:32.810Z,100.00
2022-08-30T23:19:00.852Z,100.00
2022-08-30T23:21:31.033Z,100.00
2022-08-30T23:24:17.477Z,100.00
2022-08-30T23:27:05.769Z,100.00
2022-08-30T23:29:51.841Z,100.00
2022-08-30T23:32:37.586Z,100.00
2022-08-30T23:35:29.124Z,100.00
2022-08-30T23:38:15.455Z,100.00
2022-08-30T23:41:00.864Z,100.00
2022-08-30T23:43:47.676Z,100.00
2022-08-30T23:46:33.221Z,100.00
2022-08-30T23:49:18.778Z,100.00
2022-08-30T23:52:03.982Z,100.00
2022-08-30T23:54:49.403Z,100.00
2022-08-30T23:57:36.152Z,100.00
